createdAt,value
2023-04-11T00:00:19.723Z,8.30
2023-04-11T00:02:48.545Z,7.20
2023-04-11T00:05:17.473Z,6.93
2023-04-11T00:07:47.760Z,7.03
2023-04-11T00:10:16.533Z,6.57
2023-04-11T00:12:45.273Z,7.50
2023-04-11T00:15:16.236Z,10.23
2023-04-11T00:17:45.860Z,7.47
2023-04-11T00:20:14.955Z,6.67
2023-04-11T00:22:43.851Z,8.00
2023-04-11T00:25:13.980Z,7.83
2023-04-11T00:27:42.948Z,6.30
2023-04-11T00:30:12.631Z,6.43
2023-04-11T00:32:41.295Z,6.80
2023-04-11T00:35:10.754Z,6.20
2023-04-11T00:37:39.444Z,7.73
2023-04-11T00:40:10.095Z,6.37
2023-04-11T00:42:40.281Z,6.53
2023-04-11T00:45:09.888Z,8.67
2023-04-11T00:47:38.755Z,6.97
2023-04-11T00:50:09.008Z,6.73
2023-04-11T00:52:39.756Z,6.73
2023-04-11T00:55:09.275Z,5.87
2023-04-11T00:57:39.589Z,6.73
2023-04-11T01:00:10.616Z,5.90
2023-04-11T01:02:43.239Z,6.70
2023-04-11T01:05:13.422Z,7.13
2023-04-11T01:07:44.853Z,6.60
2023-04-11T01:10:15.407Z,6.67
2023-04-11T01:12:47.294Z,7.03
2023-04-11T01:15:16.058Z,6.57
2023-04-11T01:17:45.750Z,6.40
2023-04-11T01:20:15.065Z,7.30
2023-04-11T01:22:44.286Z,7.23
2023-04-11T01:25:16.919Z,6.73
2023-04-11T01:27:45.686Z,8.17
2023-04-11T01:30:14.789Z,7.17
2023-04-11T01:32:43.490Z,7.53
2023-04-11T01:35:13.508Z,6.90
2023-04-11T01:37:42.184Z,8.37
2023-04-11T01:40:11.331Z,7.83
2023-04-11T01:42:42.237Z,6.97
2023-04-11T01:45:13.299Z,7.73
2023-04-11T01:47:42.306Z,7.17
2023-04-11T01:50:12.213Z,8.90
2023-04-11T01:52:40.955Z,8.73
2023-04-11T01:55:10.836Z,7.87
2023-04-11T01:57:39.540Z,8.40
2023-04-11T02:00:11.277Z,8.00
2023-04-11T02:02:47.452Z,8.27
2023-04-11T02:05:16.519Z,9.27
2023-04-11T02:07:45.220Z,9.30
2023-04-11T02:10:19.553Z,8.37
2023-04-11T02:12:48.267Z,7.93
2023-04-11T02:15:38.346Z,8.30
2023-04-11T02:18:09.669Z,7.90
2023-04-11T02:20:40.631Z,9.80
2023-04-11T02:23:09.461Z,9.97
2023-04-11T02:25:39.108Z,8.30
2023-04-11T02:28:08.325Z,9.40
2023-04-11T02:30:38.699Z,9.87
2023-04-11T02:33:07.526Z,10.93
2023-04-11T02:35:36.219Z,10.67
2023-04-11T02:38:05.096Z,11.40
2023-04-11T02:40:33.845Z,10.67
2023-04-11T02:43:03.416Z,10.70
2023-04-11T02:45:32.766Z,10.33
2023-04-11T02:48:04.543Z,11.87
2023-04-11T02:50:36.931Z,8.53
2023-04-11T02:53:05.783Z,9.60
2023-04-11T02:55:35.114Z,10.40
2023-04-11T02:58:03.912Z,11.13
2023-04-11T03:00:32.756Z,10.23
2023-04-11T03:03:07.931Z,10.93
2023-04-11T03:05:42.142Z,11.10
2023-04-11T03:08:10.874Z,10.67
2023-04-11T03:10:43.622Z,11.53
2023-04-11T03:13:13.392Z,11.10
2023-04-11T03:15:42.301Z,11.33
2023-04-11T03:18:14.323Z,9.83
2023-04-11T03:20:45.904Z,11.73
2023-04-11T03:23:16.861Z,12.03
2023-04-11T03:25:45.826Z,12.00
2023-04-11T03:28:15.494Z,10.80
2023-04-11T03:30:44.494Z,10.93
2023-04-11T03:33:17.043Z,10.60
2023-04-11T03:35:46.020Z,10.83
2023-04-11T03:38:14.598Z,11.07
2023-04-11T03:40:43.206Z,10.60
2023-04-11T03:43:16.980Z,10.10
2023-04-11T03:45:45.808Z,11.17
2023-04-11T03:48:33.710Z,10.43
2023-04-11T03:51:07.773Z,11.23
2023-04-11T03:53:42.040Z,9.80
2023-04-11T03:56:30.814Z,9.47
2023-04-11T03:58:59.600Z,10.90
2023-04-11T04:01:34.108Z,10.20
2023-04-11T04:04:07.874Z,10.57
2023-04-11T04:06:40.347Z,12.73
2023-04-11T04:09:09.848Z,12.07
2023-04-11T04:11:48.939Z,10.13
2023-04-11T04:14:20.559Z,10.90
2023-04-11T04:16:50.005Z,10.63
2023-04-11T04:19:21.424Z,12.03
2023-04-11T04:21:51.334Z,10.23
2023-04-11T04:24:20.172Z,11.03
2023-04-11T04:26:58.009Z,10.63
2023-04-11T04:29:48.129Z,11.97
2023-04-11T04:32:28.852Z,11.87
2023-04-11T04:35:03.420Z,12.97
2023-04-11T04:37:45.483Z,10.90
2023-04-11T04:40:40.112Z,9.93
2023-04-11T04:43:11.744Z,13.53
2023-04-11T04:46:03.709Z,10.90
2023-04-11T04:48:40.212Z,11.87
2023-04-11T04:51:10.869Z,12.97
2023-04-11T04:53:39.865Z,11.57
2023-04-11T04:56:10.970Z,10.50
2023-04-11T04:58:47.557Z,10.33
2023-04-11T05:01:18.137Z,9.23
2023-04-11T05:03:50.926Z,7.17
2023-04-11T05:06:31.592Z,8.37
2023-04-11T05:09:04.463Z,8.10
2023-04-11T05:11:34.903Z,8.00
2023-04-11T05:14:03.502Z,8.03
2023-04-11T05:16:32.458Z,8.90
2023-04-11T05:19:01.300Z,3.53
2023-04-11T05:21:33.086Z,3.30
2023-04-11T05:24:01.872Z,4.13
2023-04-11T05:26:35.271Z,4.30
2023-04-11T05:29:04.076Z,2.43
2023-04-11T05:31:32.780Z,5.33
2023-04-11T05:34:07.007Z,2.90
2023-04-11T05:36:37.988Z,5.83
2023-04-11T05:39:06.639Z,4.90
2023-04-11T05:41:35.471Z,8.33
2023-04-11T05:44:06.136Z,5.90
2023-04-11T05:46:37.035Z,3.27
2023-04-11T05:49:06.897Z,2.27
2023-04-11T05:51:39.167Z,2.43
2023-04-11T05:54:09.014Z,4.37
2023-04-11T05:56:39.866Z,2.50
2023-04-11T05:59:09.062Z,4.80
2023-04-11T06:01:39.919Z,5.23
2023-04-11T06:04:08.921Z,2.53
2023-04-11T06:06:39.158Z,2.67
2023-04-11T06:09:09.437Z,3.07
2023-04-11T06:11:38.596Z,3.70
2023-04-11T06:14:07.677Z,3.80
2023-04-11T06:16:37.051Z,4.40
2023-04-11T06:19:06.679Z,1.80
2023-04-11T06:21:35.565Z,2.73
2023-04-11T06:24:11.048Z,2.73
2023-04-11T06:26:40.086Z,2.27
2023-04-11T06:29:11.120Z,2.20
2023-04-11T06:31:41.857Z,4.60
2023-04-11T06:34:11.190Z,3.43
2023-04-11T06:36:42.831Z,3.23
2023-04-11T06:39:13.932Z,4.13
2023-04-11T06:41:43.084Z,3.73
2023-04-11T06:44:12.504Z,4.03
2023-04-11T06:47:32.481Z,4.17
2023-04-11T06:50:01.432Z,3.33
2023-04-11T06:52:30.564Z,4.83
2023-04-11T06:55:00.806Z,3.20
2023-04-11T06:57:29.512Z,3.77
2023-04-11T06:59:58.079Z,2.03
2023-04-11T07:02:26.825Z,3.47
2023-04-11T07:04:55.730Z,3.57
2023-04-11T07:07:25.092Z,2.77
2023-04-11T07:09:53.908Z,2.90
2023-04-11T07:12:24.688Z,2.17
2023-04-11T07:14:53.383Z,1.80
2023-04-11T07:17:21.926Z,3.63
2023-04-11T07:19:51.104Z,3.37
2023-04-11T07:22:21.384Z,4.27
2023-04-11T07:24:53.390Z,2.83
2023-04-11T07:27:23.572Z,2.73
2023-04-11T07:29:52.352Z,3.57
2023-04-11T07:32:21.021Z,1.43
2023-04-11T07:34:49.889Z,2.10
2023-04-11T07:37:18.503Z,1.67
2023-04-11T07:39:47.090Z,2.87
2023-04-11T07:42:15.711Z,3.13
2023-04-11T07:44:46.262Z,2.53
2023-04-11T07:47:14.952Z,2.63
2023-04-11T07:49:43.596Z,1.33
2023-04-11T07:52:14.141Z,4.10
2023-04-11T07:54:43.133Z,5.93
2023-04-11T07:57:11.793Z,2.30
2023-04-11T07:59:41.222Z,2.93
2023-04-11T08:02:11.278Z,4.33
2023-04-11T08:04:40.021Z,3.33
2023-04-11T08:07:08.573Z,3.40
2023-04-11T08:09:37.173Z,5.30
2023-04-11T08:12:06.383Z,3.87
2023-04-11T08:14:35.232Z,2.33
2023-04-11T08:17:08.185Z,3.07
2023-04-11T08:19:42.405Z,2.63
2023-04-11T08:22:10.907Z,4.40
2023-04-11T08:24:39.458Z,3.83
2023-04-11T08:27:07.993Z,4.03
2023-04-11T08:29:36.559Z,3.00
2023-04-11T08:32:06.609Z,3.53
2023-04-11T08:34:35.391Z,4.60
2023-04-11T08:37:05.533Z,4.40
2023-04-11T08:39:34.321Z,2.97
2023-04-11T08:42:09.204Z,3.93
2023-04-11T08:45:04.736Z,4.20
2023-04-11T08:47:33.875Z,4.00
2023-04-11T08:50:02.777Z,6.73
2023-04-11T08:52:34.287Z,5.17
2023-04-11T08:55:03.122Z,7.57
2023-04-11T08:57:32.547Z,4.03
2023-04-11T09:00:10.902Z,3.93
2023-04-11T09:02:56.774Z,5.40
2023-04-11T09:05:30.594Z,4.87
2023-04-11T09:12:36.131Z,5.33
2023-04-11T09:15:19.596Z,5.40
2023-04-11T09:17:48.161Z,4.90
2023-04-11T09:20:21.527Z,7.87
2023-04-11T09:22:51.021Z,7.63
2023-04-11T09:25:21.134Z,6.73
2023-04-11T09:28:07.790Z,4.07
2023-04-11T09:30:36.765Z,5.20
2023-04-11T09:33:21.516Z,6.00
2023-04-11T09:35:50.929Z,5.43
2023-04-11T09:38:34.155Z,4.97
2023-04-11T09:41:03.799Z,7.83
2023-04-11T09:44:01.133Z,5.77
2023-04-11T09:46:29.983Z,3.43
2023-04-11T09:49:01.685Z,3.00
2023-04-11T09:51:35.986Z,4.90
2023-04-11T09:54:06.513Z,3.80
2023-04-11T09:56:35.634Z,4.87
2023-04-11T09:59:06.247Z,3.57
2023-04-11T10:01:35.520Z,3.70
2023-04-11T10:04:04.973Z,2.73
2023-04-11T10:06:39.306Z,4.10
2023-04-11T10:09:09.820Z,1.77
2023-04-11T10:11:38.679Z,3.33
2023-04-11T10:14:08.831Z,3.43
2023-04-11T10:16:38.545Z,6.13
2023-04-11T10:19:26.196Z,4.07
2023-04-11T10:21:55.036Z,6.60
2023-04-11T10:24:26.325Z,3.33
2023-04-11T10:26:56.192Z,5.13
2023-04-11T10:29:51.217Z,3.00
2023-04-11T10:32:24.820Z,2.93
2023-04-11T10:35:29.556Z,4.17
2023-04-11T10:37:58.220Z,5.00
2023-04-11T10:40:27.617Z,5.33
2023-04-11T10:44:14.125Z,5.17
2023-04-11T10:46:50.625Z,5.10
2023-04-11T10:49:40.801Z,3.20
2023-04-11T10:52:23.607Z,3.27
2023-04-11T10:54:53.134Z,5.93
2023-04-11T10:57:23.074Z,5.25
2023-04-11T11:00:01.805Z,5.20
2023-04-11T11:02:43.244Z,3.17
2023-04-11T11:05:22.749Z,3.85
2023-04-11T11:07:52.973Z,5.00
2023-04-11T11:10:47.377Z,4.88
2023-04-11T11:13:17.558Z,3.55
2023-04-11T11:15:51.176Z,4.53
2023-04-11T11:18:21.676Z,3.97
2023-04-11T11:20:56.563Z,3.10
2023-04-11T11:23:27.347Z,3.85
2023-04-11T11:25:56.858Z,3.90
2023-04-11T11:28:26.595Z,2.50
2023-04-11T11:30:58.996Z,5.85
2023-04-11T11:33:29.006Z,2.38
2023-04-11T11:36:01.649Z,2.85
2023-04-11T11:38:32.256Z,2.20
2023-04-11T11:41:01.221Z,4.18
2023-04-11T11:43:30.497Z,4.20
2023-04-11T11:46:09.913Z,5.63
2023-04-11T11:48:40.195Z,4.05
2023-04-11T11:51:09.476Z,2.85
2023-04-11T11:54:08.649Z,5.17
2023-04-11T11:56:37.561Z,3.07
2023-04-11T11:59:06.323Z,2.60
2023-04-11T12:01:35.350Z,3.60
2023-04-11T12:04:12.013Z,3.70
2023-04-11T12:06:40.670Z,2.83
2023-04-11T12:09:10.411Z,2.13
2023-04-11T12:11:40.277Z,1.25
2023-04-11T12:14:10.070Z,1.63
2023-04-11T12:16:39.463Z,2.87
2023-04-11T12:19:10.574Z,2.42
2023-04-11T12:21:39.506Z,2.17
2023-04-11T12:24:10.341Z,2.33
2023-04-11T12:26:57.709Z,2.53
2023-04-11T12:29:32.580Z,2.20
2023-04-11T12:32:01.237Z,1.80
2023-04-11T12:34:35.782Z,2.63
2023-04-11T12:37:04.483Z,1.87
2023-04-11T12:39:33.334Z,4.67
2023-04-11T12:42:02.268Z,3.63
2023-04-11T12:44:31.004Z,3.97
2023-04-11T12:46:59.558Z,3.17
2023-04-11T12:49:28.562Z,2.93
2023-04-11T12:51:58.717Z,1.80
2023-04-11T12:54:27.419Z,3.75
2023-04-11T12:56:58.458Z,3.10
2023-04-11T12:59:27.116Z,5.85
2023-04-11T13:01:55.919Z,3.07
2023-04-11T13:04:24.855Z,1.50
2023-04-11T13:06:53.609Z,2.47
2023-04-11T13:09:23.840Z,2.60
2023-04-11T13:11:52.592Z,2.03
2023-04-11T13:14:21.405Z,2.33
2023-04-11T13:16:50.297Z,3.77
2023-04-11T13:19:18.990Z,4.33
2023-04-11T13:21:48.011Z,2.50
2023-04-11T13:24:17.629Z,2.53
2023-04-11T13:26:47.806Z,3.17
2023-04-11T13:29:16.468Z,2.20
2023-04-11T13:31:45.212Z,4.43
2023-04-11T13:34:14.097Z,3.85
2023-04-11T13:36:42.856Z,3.80
2023-04-11T13:39:11.523Z,3.55
2023-04-11T13:41:40.495Z,2.83
2023-04-11T13:44:10.819Z,3.72
2023-04-11T13:46:39.564Z,6.03
2023-04-11T13:49:08.293Z,3.70
2023-04-11T13:51:37.014Z,3.63
2023-04-11T13:54:05.861Z,2.28
2023-04-11T13:56:35.859Z,2.60
2023-04-11T13:59:05.097Z,3.22
2023-04-11T14:01:35.333Z,2.55
2023-04-11T14:04:04.109Z,3.70
2023-04-11T14:06:32.975Z,2.50
2023-04-11T14:09:01.817Z,2.42
2023-04-11T14:11:30.573Z,1.40
2023-04-11T14:13:59.258Z,2.23
2023-04-11T14:16:27.965Z,5.87
2023-04-11T14:18:58.182Z,1.77
2023-04-11T14:21:28.867Z,3.50
2023-04-11T14:23:58.110Z,2.57
2023-04-11T14:26:27.159Z,2.30
2023-04-11T14:28:56.148Z,7.73
2023-04-11T14:31:24.976Z,4.03
2023-04-11T14:33:56.011Z,2.77
2023-04-11T14:36:27.644Z,2.17
2023-04-11T14:38:56.337Z,3.70
2023-04-11T14:41:25.015Z,2.42
2023-04-11T14:43:53.721Z,2.47
2023-04-11T14:46:22.460Z,4.03
2023-04-11T14:48:51.102Z,2.72
2023-04-11T14:51:19.905Z,3.72
2023-04-11T14:53:55.324Z,3.00
2023-04-11T14:56:24.365Z,1.95
2023-04-11T14:58:53.010Z,4.38
2023-04-11T15:01:21.795Z,3.17
2023-04-11T15:03:50.372Z,5.18
2023-04-11T15:06:19.499Z,2.05
2023-04-11T15:08:50.583Z,2.28
2023-04-11T15:11:19.716Z,4.68
2023-04-11T15:13:48.503Z,4.07
2023-04-11T15:16:18.638Z,1.98
2023-04-11T15:18:48.027Z,3.95
2023-04-11T15:21:17.091Z,2.60
2023-04-11T15:23:46.304Z,3.83
2023-04-11T15:26:44.559Z,4.00
2023-04-11T15:29:16.116Z,2.53
2023-04-11T15:31:44.788Z,3.53
2023-04-11T15:34:16.909Z,2.83
2023-04-11T15:36:47.211Z,2.93
2023-04-11T15:39:19.904Z,2.67
2023-04-11T15:41:50.111Z,4.70
2023-04-11T15:44:18.805Z,2.80
2023-04-11T15:46:49.466Z,2.27
2023-04-11T15:49:18.328Z,1.70
2023-04-11T15:51:47.137Z,5.83
2023-04-11T15:54:15.799Z,2.33
2023-04-11T15:56:44.576Z,3.47
2023-04-11T15:59:15.732Z,3.83
2023-04-11T16:01:44.813Z,4.03
2023-04-11T16:04:13.617Z,3.83
2023-04-11T16:06:42.434Z,4.40
2023-04-11T16:09:11.091Z,3.67
2023-04-11T16:11:40.457Z,2.30
2023-04-11T16:14:09.103Z,2.90
2023-04-11T16:16:39.337Z,3.87
2023-04-11T16:19:08.216Z,4.17
2023-04-11T16:21:36.888Z,1.40
2023-04-11T16:24:35.361Z,2.33
2023-04-11T16:27:04.072Z,2.97
2023-04-11T16:29:33.492Z,3.63
2023-04-11T16:32:04.479Z,1.83
2023-04-11T16:34:33.717Z,4.47
2023-04-11T16:37:02.553Z,4.47
2023-04-11T16:39:31.158Z,4.33
2023-04-11T16:41:59.788Z,3.57
2023-04-11T16:44:57.505Z,5.00
2023-04-11T16:47:27.656Z,3.13
2023-04-11T16:49:57.230Z,3.07
2023-04-11T16:52:25.841Z,2.10
2023-04-11T16:54:54.358Z,2.80
2023-04-11T16:57:22.958Z,1.83
2023-04-11T16:59:51.775Z,5.80
2023-04-11T17:02:20.442Z,5.33
2023-04-11T17:04:50.431Z,2.77
2023-04-11T17:07:19.005Z,1.83
2023-04-11T17:09:49.197Z,3.90
2023-04-11T17:12:17.744Z,3.87
2023-04-11T17:14:47.709Z,4.57
2023-04-11T17:17:16.462Z,3.00
2023-04-11T17:19:45.168Z,2.70
2023-04-11T17:22:15.095Z,4.27
2023-04-11T17:24:43.534Z,4.87
2023-04-11T17:27:12.037Z,4.93
2023-04-11T17:29:40.507Z,4.67
2023-04-11T17:32:08.971Z,5.20
2023-04-11T17:34:37.454Z,6.00
2023-04-11T17:37:06.496Z,6.30
2023-04-11T17:39:36.729Z,5.47
2023-04-11T17:42:05.873Z,5.03
2023-04-11T17:44:34.421Z,3.40
2023-04-11T17:47:03.148Z,4.20
2023-04-11T17:49:31.670Z,3.10
2023-04-11T17:52:00.168Z,3.10
2023-04-11T17:54:28.927Z,4.47
2023-04-11T17:56:58.957Z,3.37
2023-04-11T17:59:27.851Z,5.80
2023-04-11T18:01:57.007Z,3.80
2023-04-11T18:04:25.623Z,4.90
2023-04-11T18:06:55.095Z,3.83
2023-04-11T18:09:27.499Z,4.27
2023-04-11T18:11:57.433Z,5.80
2023-04-11T18:14:27.558Z,4.70
2023-04-11T18:16:56.271Z,4.47
2023-04-11T18:19:51.815Z,4.20
2023-04-11T18:22:20.298Z,3.40
2023-04-11T18:24:48.767Z,3.87
2023-04-11T18:27:17.460Z,4.37
2023-04-11T18:29:51.759Z,5.10
2023-04-11T18:32:23.626Z,6.37
2023-04-11T18:34:53.918Z,5.07
2023-04-11T18:37:23.873Z,5.20
2023-04-11T18:39:53.108Z,5.00
2023-04-11T18:42:21.832Z,5.90
2023-04-11T18:44:52.360Z,5.60
2023-04-11T18:47:21.186Z,6.90
2023-04-11T18:49:49.914Z,4.57
2023-04-11T18:53:14.559Z,4.20
2023-04-11T18:55:43.203Z,5.27
2023-04-11T18:58:15.474Z,7.13
2023-04-11T19:00:49.500Z,6.47
2023-04-11T19:03:23.733Z,5.20
2023-04-11T19:07:12.271Z,3.37
2023-04-11T19:09:40.840Z,5.60
2023-04-11T19:12:09.982Z,4.77
2023-04-11T19:14:38.843Z,4.33
2023-04-11T19:17:09.298Z,5.50
2023-04-11T19:19:38.147Z,5.80
2023-04-11T19:22:07.620Z,3.40
2023-04-11T19:24:36.729Z,6.10
2023-04-11T19:27:05.956Z,4.53
2023-04-11T19:29:35.010Z,4.10
2023-04-11T19:32:05.616Z,7.37
2023-04-11T19:34:36.151Z,3.80
2023-04-11T19:37:05.157Z,5.10
2023-04-11T19:39:38.222Z,5.57
2023-04-11T19:42:10.377Z,6.13
2023-04-11T19:44:39.913Z,4.33
2023-04-11T19:47:10.926Z,7.33
2023-04-11T19:49:41.616Z,5.20
2023-04-11T19:52:11.532Z,4.20
2023-04-11T19:54:41.186Z,5.80
2023-04-11T19:57:11.876Z,10.10
2023-04-11T19:59:41.394Z,7.07
2023-04-11T20:02:13.158Z,10.70
2023-04-11T20:04:45.898Z,12.87
2023-04-11T20:08:11.377Z,10.30
2023-04-11T20:11:53.540Z,7.13
2023-04-11T20:14:22.674Z,6.60
2023-04-11T20:16:51.600Z,8.00
2023-04-11T20:19:27.665Z,8.57
2023-04-11T20:22:01.398Z,9.37
2023-04-11T20:24:56.681Z,8.63
2023-04-11T20:27:30.969Z,6.93
2023-04-11T20:30:00.869Z,11.00
2023-04-11T20:32:30.258Z,9.60
2023-04-11T20:35:02.072Z,8.13
2023-04-11T20:37:47.907Z,8.30
2023-04-11T20:40:24.803Z,9.57
2023-04-11T20:43:26.582Z,12.43
2023-04-11T20:45:58.439Z,9.87
2023-04-11T20:48:37.480Z,9.37
2023-04-11T20:51:08.856Z,8.07
2023-04-11T20:53:42.034Z,9.57
2023-04-11T20:56:20.968Z,10.27
2023-04-11T20:58:52.084Z,11.70
2023-04-11T21:01:21.496Z,8.57
2023-04-11T21:04:03.355Z,9.13
2023-04-11T21:06:49.588Z,8.43
2023-04-11T21:09:42.825Z,9.77
2023-04-11T21:12:20.564Z,10.30
2023-04-11T21:14:59.191Z,10.20
2023-04-11T21:17:36.903Z,9.10
2023-04-11T21:20:11.360Z,7.80
2023-04-11T21:22:41.008Z,8.57
2023-04-11T21:25:11.922Z,8.47
2023-04-11T21:27:41.159Z,10.27
2023-04-11T21:30:11.099Z,7.57
2023-04-11T21:32:40.483Z,11.40
2023-04-11T21:35:11.274Z,8.53
2023-04-11T21:37:40.167Z,8.93
2023-04-11T21:40:12.784Z,10.67
2023-04-11T21:42:41.502Z,7.97
2023-04-11T21:45:11.002Z,8.23
2023-04-11T21:47:39.569Z,9.23
2023-04-11T21:50:09.585Z,9.63
2023-04-11T21:52:38.623Z,9.77
2023-04-11T21:55:09.380Z,9.63
2023-04-11T21:57:40.190Z,7.07
2023-04-11T22:00:12.661Z,8.00
2023-04-11T22:02:42.039Z,11.77
2023-04-11T22:05:12.870Z,7.40
2023-04-11T22:07:47.854Z,6.53
2023-04-11T22:10:23.924Z,7.27
2023-04-11T22:12:55.219Z,5.80
2023-04-11T22:15:24.677Z,6.97
2023-04-11T22:17:56.743Z,6.83
2023-04-11T22:20:26.099Z,8.73
2023-04-11T22:22:57.023Z,5.57
2023-04-11T22:25:26.116Z,7.43
2023-04-11T22:27:59.263Z,8.27
2023-04-11T22:30:28.436Z,7.67
2023-04-11T22:32:57.721Z,6.33
2023-04-11T22:35:30.757Z,7.77
2023-04-11T22:38:00.883Z,6.97
2023-04-11T22:41:18.615Z,6.17
2023-04-11T22:53:32.757Z,6.30
2023-04-11T22:56:21.115Z,6.70
2023-04-11T22:58:58.624Z,6.40
2023-04-11T23:02:07.237Z,7.93
2023-04-11T23:05:14.308Z,5.97
2023-04-11T23:08:49.191Z,7.67
2023-04-11T23:11:27.272Z,6.47
2023-04-11T23:13:56.603Z,7.00
2023-04-11T23:16:26.230Z,6.87
2023-04-11T23:18:55.549Z,6.83
2023-04-11T23:21:25.905Z,8.20
2023-04-11T23:23:54.699Z,7.63
2023-04-11T23:26:24.470Z,5.90
2023-04-11T23:28:54.310Z,8.27
2023-04-11T23:31:23.224Z,5.83
2023-04-11T23:33:53.840Z,8.73
2023-04-11T23:36:22.870Z,6.00
2023-04-11T23:38:53.573Z,10.30
2023-04-11T23:41:22.462Z,7.20
2023-04-11T23:43:51.359Z,6.70
2023-04-11T23:46:20.587Z,7.53
2023-04-11T23:48:49.445Z,6.70
2023-04-11T23:51:18.218Z,7.40
2023-04-11T23:53:46.868Z,6.17
2023-04-11T23:56:17.384Z,8.37
2023-04-11T23:58:46.191Z,7.93
